Time;durP1;ratioP1;P1;durP2;ratioP2;P2;SDS_P1;SDS_P2;PMS_P1;PMS_P2;Temp;Humidity;BMP_temperature;BMP_pressure;BME280_temperature;BME280_humidity;BME280_pressure;Samples;Min_cycle;Max_cycle;Signal;HPM_P1;HPM_P2
2022/05/12 00:01:42;;;;;;;4.05;3.75;;;17.30;95.40;;;;;;622974;230;26599;-70
2022/05/12 00:04:10;;;;;;;3.67;3.37;;;17.40;95.20;;;;;;617484;230;26595;-70
2022/05/12 00:06:37;;;;;;;4.40;4.00;;;17.50;95.20;;;;;;622465;228;26623;-70
2022/05/12 00:09:05;;;;;;;4.18;3.75;;;17.50;94.90;;;;;;624574;230;26620;-70
2022/05/12 00:11:33;;;;;;;4.47;3.60;;;17.40;95.00;;;;;;624754;230;26563;-70
2022/05/12 00:14:01;;;;;;;3.90;3.60;;;17.40;95.00;;;;;;624727;230;26606;-70
2022/05/12 00:16:28;;;;;;;4.03;3.72;;;17.40;94.90;;;;;;622245;230;26614;-70
2022/05/12 00:18:55;;;;;;;3.50;3.30;;;17.40;94.70;;;;;;623380;230;26847;-70
2022/05/12 00:21:22;;;;;;;4.45;3.87;;;17.40;94.70;;;;;;621600;229;26609;-70
2022/05/12 00:23:56;;;;;;;3.75;3.45;;;17.40;94.80;;;;;;627517;229;26836;-70
2022/05/12 00:26:26;;;;;;;3.70;3.35;;;17.50;94.70;;;;;;626602;229;26583;-70
2022/05/12 00:28:53;;;;;;;3.60;3.30;;;17.50;94.50;;;;;;627267;229;26609;-70
2022/05/12 00:31:20;;;;;;;3.62;3.30;;;17.50;94.30;;;;;;622260;229;26592;-70
2022/05/12 00:33:48;;;;;;;5.30;3.42;;;17.50;94.10;;;;;;627255;229;26611;-70
2022/05/12 00:36:16;;;;;;;3.75;3.42;;;17.40;94.10;;;;;;626665;229;26578;-70
2022/05/12 00:38:43;;;;;;;4.25;3.60;;;17.50;94.10;;;;;;626970;229;26810;-70
2022/05/12 00:41:10;;;;;;;3.45;3.25;;;17.50;94.00;;;;;;623750;229;26522;-70
2022/05/12 00:43:38;;;;;;;4.10;3.20;;;17.50;93.90;;;;;;618139;229;26568;-70
2022/05/12 00:46:05;;;;;;;3.37;3.10;;;17.60;93.70;;;;;;619483;229;26978;-70
2022/05/12 00:48:33;;;;;;;4.43;3.12;;;17.50;93.50;;;;;;625496;229;26515;-70
2022/05/12 00:51:00;;;;;;;3.83;3.53;;;17.60;93.60;;;;;;625381;229;26535;-70
2022/05/12 00:53:27;;;;;;;3.45;3.08;;;17.60;93.50;;;;;;625174;229;26578;-70
2022/05/12 00:55:54;;;;;;;3.47;3.17;;;17.60;93.30;;;;;;619741;229;26830;-70
2022/05/12 00:58:22;;;;;;;3.35;3.10;;;17.60;93.20;;;;;;621211;230;26602;-70
2022/05/12 01:00:49;;;;;;;4.57;3.22;;;17.60;93.20;;;;;;625870;230;26836;-70
2022/05/12 01:03:16;;;;;;;3.05;2.70;;;17.60;93.40;;;;;;624964;227;26599;-70
2022/05/12 01:05:43;;;;;;;3.83;3.17;;;17.60;93.30;;;;;;624666;230;26906;-70
2022/05/12 01:08:10;;;;;;;3.53;3.22;;;17.60;93.30;;;;;;625785;230;26535;-70
2022/05/12 01:10:39;;;;;;;3.03;2.83;;;17.60;93.20;;;;;;621064;230;26811;-70
2022/05/12 01:13:06;;;;;;;2.95;2.58;;;17.60;93.10;;;;;;622429;229;26605;-70
2022/05/12 01:15:33;;;;;;;3.50;3.20;;;17.70;93.00;;;;;;624792;230;26559;-70
2022/05/12 01:18:03;;;;;;;3.20;3.00;;;17.80;92.80;;;;;;625306;230;26521;-70
2022/05/12 01:20:30;;;;;;;3.33;3.08;;;17.70;92.70;;;;;;625361;230;26615;-70
2022/05/12 01:22:57;;;;;;;3.35;3.05;;;17.80;92.70;;;;;;624673;230;26583;-70
2022/05/12 01:25:25;;;;;;;3.30;3.00;;;17.90;92.40;;;;;;621946;228;26618;-70
2022/05/12 01:27:53;;;;;;;4.25;3.05;;;17.90;92.10;;;;;;620041;230;26636;-70
2022/05/12 01:30:21;;;;;;;3.42;3.00;;;18.00;91.90;;;;;;623321;230;26599;-70
2022/05/12 01:32:49;;;;;;;3.92;3.50;;;18.00;91.90;;;;;;624569;227;26848;-70
2022/05/12 01:35:17;;;;;;;3.42;3.10;;;18.00;92.20;;;;;;619356;229;26606;-70
2022/05/12 01:37:45;;;;;;;4.15;2.87;;;17.40;95.90;;;;;;627213;228;26564;-70
2022/05/12 01:40:13;;;;;;;3.10;2.90;;;17.10;95.60;;;;;;624630;229;26595;-70
2022/05/12 01:42:40;;;;;;;3.08;2.87;;;17.10;95.60;;;;;;625026;229;26595;-70
2022/05/12 01:45:07;;;;;;;2.83;2.55;;;17.00;95.30;;;;;;625240;229;26618;-70
2022/05/12 01:47:35;;;;;;;3.25;2.95;;;16.90;95.30;;;;;;625359;230;26627;-70
2022/05/12 01:50:02;;;;;;;3.80;2.85;;;16.80;95.80;;;;;;619105;229;26576;-74
2022/05/12 01:52:30;;;;;;;3.35;3.05;;;16.70;96.00;;;;;;625199;225;26583;-74
2022/05/12 01:54:58;;;;;;;3.20;2.90;;;16.70;96.00;;;;;;624044;229;26577;-74
2022/05/12 01:57:25;;;;;;;3.03;2.72;;;16.70;96.00;;;;;;620775;230;26559;-74
2022/05/12 01:59:52;;;;;;;5.03;3.00;;;16.70;95.90;;;;;;626198;229;26798;-74
2022/05/12 02:02:19;;;;;;;3.10;2.80;;;16.70;95.90;;;;;;625166;227;26576;-73
2022/05/12 02:04:48;;;;;;;2.70;2.50;;;16.70;96.10;;;;;;625042;230;26851;-74
2022/05/12 02:07:14;;;;;;;3.28;2.75;;;16.60;96.70;;;;;;619396;229;26553;-74
2022/05/12 02:09:41;;;;;;;3.50;3.20;;;16.50;96.60;;;;;;623216;230;26808;-74
2022/05/12 02:12:08;;;;;;;2.92;2.67;;;16.50;96.80;;;;;;619811;228;26645;-74
2022/05/12 02:14:35;;;;;;;3.55;2.70;;;16.50;96.90;;;;;;617384;233;26844;-74
2022/05/12 02:17:03;;;;;;;3.20;2.67;;;16.50;96.80;;;;;;620470;230;26680;-74
2022/05/12 02:19:30;;;;;;;3.50;2.78;;;16.40;96.90;;;;;;622733;230;26578;-74
2022/05/12 02:22:00;;;;;;;3.97;3.08;;;15.80;99.90;;;;;;625956;228;26603;-74
2022/05/12 02:24:26;;;;;;;3.15;2.85;;;15.30;99.90;;;;;;625983;230;26562;-74
2022/05/12 02:26:55;;;;;;;3.33;2.70;;;15.30;99.90;;;;;;626146;230;26593;-74
2022/05/12 02:29:20;;;;;;;4.03;2.83;;;15.00;99.90;;;;;;626010;230;26523;-74
2022/05/12 02:31:48;;;;;;;3.15;2.90;;;14.80;99.90;;;;;;624887;228;26796;-74
2022/05/12 02:34:15;;;;;;;4.10;2.65;;;14.70;99.90;;;;;;618010;230;26582;-75
2022/05/12 02:36:42;;;;;;;4.12;2.70;;;14.60;99.90;;;;;;617454;230;26855;-75
2022/05/12 02:39:09;;;;;;;3.35;2.83;;;14.60;99.90;;;;;;620997;230;26602;-74
2022/05/12 02:41:36;;;;;;;2.62;2.30;;;14.50;99.90;;;;;;626270;228;26800;-75
2022/05/12 02:44:04;;;;;;;3.45;2.70;;;14.40;99.90;;;;;;625947;228;26614;-74
2022/05/12 02:46:31;;;;;;;5.37;3.08;;;14.40;99.90;;;;;;623619;229;26622;-73
2022/05/12 02:48:58;;;;;;;5.35;2.90;;;14.30;99.90;;;;;;625884;230;26840;-72
2022/05/12 02:51:25;;;;;;;2.85;2.58;;;14.30;99.90;;;;;;623194;229;26578;-72
2022/05/12 02:53:53;;;;;;;3.03;2.83;;;14.30;99.90;;;;;;623618;229;26872;-73
2022/05/12 02:56:20;;;;;;;2.58;2.30;;;14.30;99.90;;;;;;626778;229;26599;-72
2022/05/12 02:58:47;;;;;;;4.90;2.58;;;14.30;99.90;;;;;;618877;229;26803;-73
2022/05/12 03:01:14;;;;;;;2.87;2.62;;;14.20;99.90;;;;;;619663;229;26538;-72
2022/05/12 03:03:41;;;;;;;5.12;2.30;;;14.20;99.90;;;;;;625210;227;26793;-72
2022/05/12 03:06:08;;;;;;;2.70;2.30;;;14.20;99.90;;;;;;618979;229;26547;-72
2022/05/12 03:08:37;;;;;;;2.87;2.37;;;14.20;99.90;;;;;;620404;229;26573;-73
2022/05/12 03:11:04;;;;;;;3.22;2.60;;;14.20;99.90;;;;;;620610;229;26706;-73
2022/05/12 03:13:32;;;;;;;4.68;2.40;;;14.20;99.90;;;;;;620989;227;26586;-73
2022/05/12 03:16:00;;;;;;;2.90;2.35;;;14.20;99.90;;;;;;624360;229;26563;-74
2022/05/12 03:18:28;;;;;;;2.58;2.25;;;14.10;99.90;;;;;;626459;228;26546;-74
2022/05/12 03:20:56;;;;;;;4.03;2.35;;;14.20;99.90;;;;;;626190;229;26558;-74
2022/05/12 03:23:23;;;;;;;2.55;2.35;;;14.10;99.90;;;;;;625213;230;26660;-74
2022/05/12 03:25:51;;;;;;;3.03;2.40;;;14.20;99.90;;;;;;621569;229;26827;-74
2022/05/12 03:28:18;;;;;;;2.95;2.22;;;14.20;99.90;;;;;;617358;233;26603;-74
2022/05/12 03:30:47;;;;;;;3.58;2.50;;;14.10;99.90;;;;;;623737;230;26610;-74
2022/05/12 03:33:15;;;;;;;4.10;2.10;;;14.20;99.90;;;;;;624548;230;26611;-74
2022/05/12 03:35:42;;;;;;;3.30;2.10;;;14.20;99.90;;;;;;620260;230;26610;-74
2022/05/12 03:38:09;;;;;;;3.70;2.50;;;14.20;99.90;;;;;;617454;233;26636;-74
2022/05/12 03:40:36;;;;;;;3.00;2.00;;;14.20;99.90;;;;;;618238;230;26839;-74
2022/05/12 03:43:03;;;;;;;2.33;2.03;;;14.20;99.90;;;;;;626205;230;26596;-74
2022/05/12 03:45:33;;;;;;;2.25;2.05;;;14.20;99.90;;;;;;626137;230;27175;-74
2022/05/12 03:47:59;;;;;;;2.53;2.20;;;14.20;99.90;;;;;;621830;230;26555;-74
2022/05/12 03:50:26;;;;;;;2.90;2.17;;;14.20;99.90;;;;;;618112;230;26864;-74
2022/05/12 03:52:53;;;;;;;2.25;2.05;;;14.20;99.90;;;;;;626136;230;26597;-75
2022/05/12 03:55:21;;;;;;;2.37;2.17;;;14.30;99.90;;;;;;626397;227;26813;-74
2022/05/12 03:57:47;;;;;;;6.03;2.42;;;14.30;99.90;;;;;;624300;229;26554;-74
2022/05/12 04:00:15;;;;;;;2.87;2.60;;;14.30;99.90;;;;;;622218;229;26879;-73
2022/05/12 04:02:42;;;;;;;5.47;2.20;;;14.30;99.90;;;;;;626862;229;26604;-74
2022/05/12 04:05:10;;;;;;;3.42;1.92;;;14.30;99.90;;;;;;624152;229;26814;-73
2022/05/12 04:07:37;;;;;;;4.85;2.12;;;14.30;99.90;;;;;;618684;229;26569;-74
2022/05/12 04:10:06;;;;;;;2.65;2.17;;;14.30;99.90;;;;;;620593;229;26836;-74
2022/05/12 04:12:32;;;;;;;2.75;2.28;;;14.40;99.90;;;;;;622969;229;26649;-74
2022/05/12 04:14:59;;;;;;;1.83;1.70;;;14.40;99.90;;;;;;618205;229;26836;-73
2022/05/12 04:17:26;;;;;;;2.00;1.80;;;14.50;99.90;;;;;;621861;229;26546;-73
2022/05/12 04:19:54;;;;;;;4.45;1.87;;;14.60;99.90;;;;;;626250;229;26758;-73
2022/05/12 04:22:21;;;;;;;3.00;2.30;;;14.60;99.90;;;;;;623850;229;26813;-73
2022/05/12 04:24:50;;;;;;;2.92;2.08;;;14.60;99.90;;;;;;625283;229;26586;-73
2022/05/12 04:27:18;;;;;;;2.12;1.92;;;14.60;99.90;;;;;;624969;229;26585;-73
2022/05/12 04:29:46;;;;;;;3.60;2.08;;;14.60;99.90;;;;;;620072;229;26573;-73
2022/05/12 04:32:13;;;;;;;2.65;2.03;;;14.70;99.90;;;;;;622379;229;26586;-73
2022/05/12 04:37:14;;;;;;;2.35;1.87;;;14.70;99.90;;;;;;622303;230;26831;-73
2022/05/12 04:39:42;;;;;;;2.15;1.92;;;14.60;99.90;;;;;;624791;230;26579;-73
2022/05/12 04:42:09;;;;;;;4.12;2.58;;;14.60;99.90;;;;;;624809;227;26571;-73
2022/05/12 04:44:36;;;;;;;2.60;1.98;;;14.50;99.90;;;;;;624697;230;26520;-73
2022/05/12 04:47:03;;;;;;;3.47;2.10;;;14.50;99.90;;;;;;624574;228;26911;-73
2022/05/12 04:49:30;;;;;;;4.12;2.28;;;14.50;99.90;;;;;;625755;228;26576;-73
2022/05/12 04:52:01;;;;;;;2.78;2.12;;;14.50;99.90;;;;;;626182;229;26557;-73
2022/05/12 04:54:25;;;;;;;4.53;1.92;;;14.50;99.90;;;;;;626161;230;26837;-73
2022/05/12 04:56:52;;;;;;;3.30;2.10;;;14.60;99.90;;;;;;626237;230;26519;-73
2022/05/12 04:59:19;;;;;;;3.47;2.05;;;14.60;99.90;;;;;;626268;230;26784;-73
2022/05/12 05:01:46;;;;;;;2.08;1.83;;;14.70;99.90;;;;;;626249;228;26543;-73
2022/05/12 05:04:14;;;;;;;3.17;2.20;;;14.70;99.90;;;;;;626321;230;26867;-73
2022/05/12 05:06:41;;;;;;;4.20;2.17;;;14.80;99.90;;;;;;626428;227;26793;-73
2022/05/12 05:09:08;;;;;;;3.20;1.80;;;14.70;99.90;;;;;;628009;229;26851;-73
2022/05/12 05:11:37;;;;;;;2.90;1.85;;;14.80;99.90;;;;;;627472;229;26603;-73
2022/05/12 05:14:02;;;;;;;2.67;1.62;;;14.80;99.90;;;;;;627220;229;26845;-73
2022/05/12 05:16:30;;;;;;;3.75;1.85;;;15.00;99.90;;;;;;627121;229;26593;-73
2022/05/12 05:18:58;;;;;;;2.75;2.12;;;15.00;99.90;;;;;;626922;229;26610;-73
2022/05/12 05:21:26;;;;;;;1.95;1.52;;;15.20;99.90;;;;;;626927;229;26600;-73
2022/05/12 05:23:54;;;;;;;4.70;1.62;;;15.10;99.60;;;;;;626909;229;26627;-73
2022/05/12 05:26:21;;;;;;;4.47;2.15;;;15.10;99.70;;;;;;625446;228;26587;-73
2022/05/12 05:28:49;;;;;;;2.92;2.00;;;15.00;99.30;;;;;;625040;229;26547;-73
2022/05/12 05:31:16;;;;;;;2.58;1.85;;;15.10;98.80;;;;;;612835;234;26873;-73
2022/05/12 05:33:43;;;;;;;1.70;1.60;;;15.10;98.10;;;;;;624017;229;26566;-72
2022/05/12 05:36:10;;;;;;;3.33;1.85;;;15.20;97.80;;;;;;624668;229;26804;-73
2022/05/12 05:38:38;;;;;;;1.75;1.62;;;15.10;97.10;;;;;;625566;229;26543;-72
2022/05/12 05:41:05;;;;;;;2.72;1.85;;;15.20;96.90;;;;;;625495;229;26936;-72
2022/05/12 05:43:32;;;;;;;4.05;2.15;;;15.10;95.90;;;;;;621986;228;26579;-71
2022/05/12 05:45:59;;;;;;;2.62;2.00;;;15.10;95.10;;;;;;620390;230;27261;-72
2022/05/12 05:48:26;;;;;;;3.03;1.50;;;15.10;94.30;;;;;;626171;230;26555;-72
2022/05/12 05:53:27;;;;;;;3.87;1.65;;;15.20;93.40;;;;;;623182;230;26631;-73
2022/05/12 05:55:54;;;;;;;2.45;1.50;;;15.20;93.20;;;;;;619054;230;26865;-73
2022/05/12 05:58:21;;;;;;;2.15;1.30;;;15.30;92.70;;;;;;619407;230;26614;-73
2022/05/12 06:00:49;;;;;;;1.40;1.20;;;15.20;92.60;;;;;;625454;230;26784;-73
2022/05/12 06:03:16;;;;;;;1.83;1.37;;;15.30;92.50;;;;;;624122;230;26615;-73
2022/05/12 06:05:43;;;;;;;1.98;1.37;;;15.40;91.70;;;;;;623355;230;26816;-74
2022/05/12 06:08:10;;;;;;;3.45;1.70;;;15.50;91.60;;;;;;624430;230;26587;-72
2022/05/12 06:10:38;;;;;;;4.57;1.77;;;15.40;91.10;;;;;;621583;230;26849;-72
2022/05/12 06:13:05;;;;;;;6.80;1.98;;;15.70;90.40;;;;;;625589;228;26585;-72
2022/05/12 06:15:34;;;;;;;8.75;1.73;;;15.70;90.50;;;;;;619973;230;26623;-67
2022/05/12 06:18:01;;;;;;;2.90;1.40;;;15.90;90.00;;;;;;617775;230;26632;-67
2022/05/12 06:20:29;;;;;;;1.87;1.42;;;16.00;88.80;;;;;;626238;228;26621;-66
2022/05/12 06:22:57;;;;;;;2.28;1.52;;;15.80;89.00;;;;;;625173;226;26658;-67
2022/05/12 06:25:24;;;;;;;5.43;1.30;;;15.80;89.00;;;;;;622742;229;26555;-67
2022/05/12 06:27:51;;;;;;;1.52;1.20;;;15.90;87.50;;;;;;624904;229;26552;-67
2022/05/12 06:30:18;;;;;;;4.43;1.40;;;15.90;87.20;;;;;;622192;229;26826;-67
2022/05/12 06:32:46;;;;;;;2.37;1.40;;;15.80;87.50;;;;;;620385;229;26598;-68
2022/05/12 06:35:14;;;;;;;3.85;1.25;;;15.80;86.00;;;;;;622783;229;26610;-68
2022/05/12 06:37:42;;;;;;;2.42;1.20;;;15.60;86.60;;;;;;622217;229;26614;-67
2022/05/12 06:40:11;;;;;;;3.70;1.60;;;15.80;87.30;;;;;;621655;227;26523;-67
2022/05/12 06:42:41;;;;;;;1.95;1.25;;;15.70;87.20;;;;;;626584;229;26579;-67
2022/05/12 06:45:07;;;;;;;2.92;1.33;;;15.90;85.30;;;;;;620497;228;27096;-67
2022/05/12 06:47:34;;;;;;;1.17;0.98;;;16.10;84.80;;;;;;625130;230;26778;-68
2022/05/12 06:50:03;;;;;;;2.37;1.40;;;16.00;84.40;;;;;;625138;230;26552;-67
2022/05/12 06:52:28;;;;;;;2.83;1.45;;;16.10;84.10;;;;;;624837;227;26907;-67
2022/05/12 06:54:56;;;;;;;2.75;1.15;;;15.80;84.90;;;;;;622062;229;26882;-67
2022/05/12 06:57:24;;;;;;;3.22;1.17;;;16.20;84.10;;;;;;623365;230;26623;-67
2022/05/12 06:59:52;;;;;;;3.42;1.10;;;16.00;84.00;;;;;;624840;230;26864;-67
2022/05/12 07:02:18;;;;;;;1.87;1.00;;;15.90;83.90;;;;;;624256;230;26646;-68
2022/05/12 07:04:46;;;;;;;2.22;1.40;;;15.70;83.70;;;;;;624264;230;26580;-67
2022/05/12 07:07:14;;;;;;;1.55;1.23;;;15.50;83.50;;;;;;623458;229;26605;-67
2022/05/12 07:09:42;;;;;;;62.67;13.20;;;15.50;83.40;;;;;;626220;230;26558;-66
2022/05/12 07:12:11;;;;;;;82.82;17.98;;;15.60;83.50;;;;;;626237;230;26701;-66
2022/05/12 07:14:36;;;;;;;132.18;23.23;;;15.60;83.90;;;;;;626279;230;26578;-68
2022/05/12 07:17:03;;;;;;;215.12;32.88;;;16.00;83.20;;;;;;626417;228;26577;-67
2022/05/12 07:19:32;;;;;;;98.85;22.77;;;15.90;82.60;;;;;;626471;230;26543;-69
2022/05/12 07:27:03;;;;;;;86.47;19.20;;;16.40;82.10;;;;;;626212;230;26784;-68
2022/05/12 07:29:34;;;;;;;60.40;13.93;;;16.50;81.00;;;;;;626206;230;27338;-66
2022/05/12 07:31:58;;;;;;;56.00;13.60;;;16.50;81.40;;;;;;627423;227;26562;-66
2022/05/12 07:34:26;;;;;;;48.33;12.30;;;16.50;79.40;;;;;;627032;229;26618;-67
2022/05/12 07:36:54;;;;;;;42.50;10.00;;;16.40;78.40;;;;;;626747;229;26561;-68
2022/05/12 07:39:23;;;;;;;30.17;8.20;;;16.60;77.00;;;;;;627022;229;26559;-66
2022/05/12 07:41:50;;;;;;;15.40;4.40;;;16.50;77.40;;;;;;626716;229;26639;-65
2022/05/12 07:44:19;;;;;;;22.62;5.85;;;16.30;77.40;;;;;;626630;229;26625;-66
2022/05/12 07:46:45;;;;;;;21.15;4.78;;;16.30;77.40;;;;;;626555;229;26617;-67
2022/05/12 07:49:12;;;;;;;23.75;6.15;;;16.30;77.10;;;;;;626448;229;26619;-66
2022/05/12 07:51:39;;;;;;;20.00;5.45;;;16.50;74.30;;;;;;626231;229;26563;-67
2022/05/12 07:54:06;;;;;;;13.52;4.80;;;16.50;73.60;;;;;;626264;229;26574;-67
2022/05/12 07:56:34;;;;;;;14.38;3.87;;;16.40;73.10;;;;;;626257;229;26571;-67
2022/05/12 07:59:01;;;;;;;7.40;2.70;;;16.30;72.50;;;;;;626543;229;26567;-67
2022/05/12 08:01:29;;;;;;;6.62;2.20;;;16.60;71.70;;;;;;626525;229;26541;-66
2022/05/12 08:03:56;;;;;;;13.18;2.25;;;16.60;71.90;;;;;;626515;229;26867;-66
2022/05/12 08:06:23;;;;;;;3.35;1.60;;;16.60;71.70;;;;;;626457;229;26547;-66
2022/05/12 08:08:51;;;;;;;4.37;1.40;;;16.20;72.70;;;;;;621374;230;27272;-66
2022/05/12 08:11:19;;;;;;;4.40;1.70;;;16.10;74.30;;;;;;617413;233;26604;-66
2022/05/12 08:13:47;;;;;;;3.17;1.48;;;16.30;76.30;;;;;;617335;233;26820;-66
2022/05/12 08:16:12;;;;;;;3.10;1.40;;;16.20;77.40;;;;;;617187;233;26805;-66
2022/05/12 08:18:42;;;;;;;4.75;1.73;;;16.10;77.40;;;;;;617394;233;26831;-66
2022/05/12 08:21:07;;;;;;;6.40;1.73;;;15.70;78.90;;;;;;617253;233;26830;-67
2022/05/12 08:23:34;;;;;;;2.50;1.20;;;15.60;79.40;;;;;;617361;232;26928;-66
2022/05/12 08:26:01;;;;;;;4.07;1.10;;;15.80;78.40;;;;;;617404;233;26669;-67
2022/05/12 08:28:28;;;;;;;5.53;1.33;;;16.50;77.60;;;;;;617375;233;26605;-67
2022/05/12 08:30:56;;;;;;;3.55;1.50;;;16.70;75.60;;;;;;617399;233;26613;-67
2022/05/12 08:33:24;;;;;;;2.67;1.25;;;16.30;74.30;;;;;;617339;233;26645;-65
2022/05/12 08:35:52;;;;;;;4.07;1.40;;;16.20;74.30;;;;;;617383;230;26624;-70
2022/05/12 08:38:20;;;;;;;4.78;1.40;;;16.80;72.80;;;;;;617404;233;26671;-67
2022/05/12 08:40:57;;;;;;;6.62;1.55;;;16.80;72.60;;;;;;617346;233;27500;-66
2022/05/12 08:43:25;;;;;;;4.35;1.27;;;16.80;71.00;;;;;;619345;231;26617;-66
2022/05/12 08:45:53;;;;;;;5.45;1.17;;;16.70;71.60;;;;;;618800;232;26586;-66
2022/05/12 08:48:19;;;;;;;1.73;0.93;;;16.60;70.10;;;;;;618659;232;27099;-67
2022/05/12 08:50:47;;;;;;;4.85;1.05;;;16.90;70.70;;;;;;618663;233;26541;-67
2022/05/12 08:53:15;;;;;;;2.90;1.20;;;17.20;69.20;;;;;;617931;233;26853;-66
2022/05/12 08:55:45;;;;;;;5.05;1.10;;;16.60;70.20;;;;;;617844;229;26604;-66
2022/05/12 08:58:16;;;;;;;2.15;1.17;;;16.30;70.50;;;;;;617936;233;26558;-66
2022/05/12 09:00:44;;;;;;;3.25;1.20;;;16.30;71.20;;;;;;617641;233;26791;-66
2022/05/12 09:03:48;;;;;;;1.83;0.90;;;16.30;69.00;;;;;;617334;232;26585;-66
2022/05/12 09:06:19;;;;;;;3.00;1.12;;;16.20;68.90;;;;;;623519;230;26569;-67
2022/05/12 09:09:03;;;;;;;1.00;0.90;;;16.40;69.10;;;;;;625158;230;26790;-75
2022/05/12 09:11:33;;;;;;;4.07;1.20;;;16.40;69.80;;;;;;624993;230;26527;-74
2022/05/12 09:14:00;;;;;;;3.85;1.00;;;16.70;69.60;;;;;;624836;226;26586;-74
2022/05/12 09:16:30;;;;;;;1.48;1.10;;;17.10;65.60;;;;;;625126;230;26892;-75
2022/05/12 09:18:57;;;;;;;1.77;1.10;;;17.10;65.60;;;;;;624916;230;26528;-75
2022/05/12 09:21:24;;;;;;;2.37;1.10;;;16.90;65.50;;;;;;624815;228;26781;-74
2022/05/12 09:23:51;;;;;;;3.62;1.00;;;17.10;65.70;;;;;;624814;230;26594;-74
2022/05/12 09:26:31;;;;;;;3.90;1.02;;;17.30;63.60;;;;;;624735;228;26796;-75
2022/05/12 09:29:09;;;;;;;1.80;1.10;;;17.90;63.30;;;;;;624503;228;26540;-76
2022/05/12 09:31:38;;;;;;;1.58;1.00;;;18.40;63.80;;;;;;624590;228;26821;-75
2022/05/12 09:34:26;;;;;;;3.10;1.05;;;18.10;63.00;;;;;;624624;228;26635;-74
2022/05/12 09:36:53;;;;;;;1.27;0.98;;;18.10;63.00;;;;;;623412;230;26996;-74
2022/05/12 09:39:37;;;;;;;2.15;1.27;;;17.70;62.90;;;;;;624821;230;26547;-75
2022/05/12 09:42:04;;;;;;;3.30;0.77;;;17.20;63.40;;;;;;625215;230;26817;-74
2022/05/12 09:44:32;;;;;;;4.20;1.05;;;17.70;63.60;;;;;;624362;230;26539;-75
2022/05/12 09:47:02;;;;;;;2.05;0.70;;;17.90;62.50;;;;;;617962;230;26583;-76
2022/05/12 09:49:30;;;;;;;1.58;0.85;;;17.90;62.50;;;;;;624828;230;26778;-74
2022/05/12 09:51:56;;;;;;;1.48;1.00;;;18.30;62.70;;;;;;626543;230;26783;-75
2022/05/12 09:54:26;;;;;;;1.67;1.35;;;18.80;61.40;;;;;;620511;230;26607;-73
2022/05/12 09:56:56;;;;;;;4.32;1.35;;;18.30;59.60;;;;;;619023;232;26814;-71
2022/05/12 09:59:24;;;;;;;0.88;0.80;;;18.40;61.70;;;;;;618712;232;26603;-71
2022/05/12 10:01:55;;;;;;;4.00;1.30;;;18.50;60.10;;;;;;618606;233;26595;-71
2022/05/12 10:09:50;;;;;;;0.93;0.82;;;17.90;59.60;;;;;;612937;233;26846;-72
2022/05/12 10:12:18;;;;;;;1.45;0.80;;;17.70;58.20;;;;;;617772;233;26610;-72
2022/05/12 10:14:50;;;;;;;1.67;0.80;;;17.60;57.40;;;;;;617535;233;26573;-72
2022/05/12 10:17:39;;;;;;;3.45;1.02;;;17.90;57.10;;;;;;617608;233;26567;-72
2022/05/12 10:20:10;;;;;;;1.37;0.93;;;18.10;56.50;;;;;;614957;233;26581;-72
2022/05/12 10:22:39;;;;;;;1.80;0.88;;;17.80;57.20;;;;;;617657;233;26589;-72
2022/05/12 10:25:07;;;;;;;2.58;0.90;;;17.60;55.80;;;;;;617640;233;26562;-72
2022/05/12 10:27:37;;;;;;;1.95;1.00;;;17.40;56.00;;;;;;617275;233;26555;-72
2022/05/12 10:30:11;;;;;;;2.55;0.90;;;17.40;56.50;;;;;;617302;233;26530;-72
2022/05/12 10:32:50;;;;;;;1.77;0.90;;;17.10;56.80;;;;;;617144;233;26849;-72
2022/05/12 10:35:27;;;;;;;2.20;0.80;;;17.20;56.70;;;;;;617537;233;26855;-72
2022/05/12 10:38:03;;;;;;;1.92;0.90;;;17.50;56.90;;;;;;617510;233;26623;-72
2022/05/12 10:40:41;;;;;;;2.60;0.90;;;17.90;56.60;;;;;;617397;233;26629;-71
2022/05/12 10:43:33;;;;;;;2.47;0.80;;;18.10;56.70;;;;;;617444;233;26637;-72
2022/05/12 10:46:02;;;;;;;1.30;1.10;;;17.90;56.50;;;;;;616894;233;26595;-72
2022/05/12 10:48:33;;;;;;;0.80;0.70;;;17.80;54.80;;;;;;617196;233;27332;-72
2022/05/12 10:51:04;;;;;;;0.77;0.62;;;17.90;55.20;;;;;;617133;233;26897;-72
2022/05/12 10:53:35;;;;;;;3.03;1.02;;;18.00;55.40;;;;;;617390;233;26606;-71
2022/05/12 10:56:39;;;;;;;0.90;0.80;;;18.30;55.50;;;;;;616975;233;26859;-72
2022/05/12 10:59:37;;;;;;;2.15;0.80;;;18.50;54.90;;;;;;606320;233;26664;-72
2022/05/12 11:02:05;;;;;;;0.73;0.68;;;19.00;55.50;;;;;;610912;233;26618;-71
2022/05/12 11:04:36;;;;;;;1.05;0.73;;;19.00;55.50;;;;;;617175;231;26627;-73
2022/05/12 11:07:05;;;;;;;1.55;1.00;;;19.00;55.20;;;;;;619006;232;26846;-72
2022/05/12 11:09:43;;;;;;;2.53;0.75;;;18.80;53.20;;;;;;618547;232;26886;-71
2022/05/12 11:12:13;;;;;;;0.77;0.75;;;19.10;54.30;;;;;;618218;233;26602;-73
2022/05/12 11:14:41;;;;;;;0.82;0.77;;;19.30;54.80;;;;;;617610;232;26834;-71
2022/05/12 11:17:15;;;;;;;5.00;1.20;;;19.40;54.70;;;;;;617747;233;26557;-72
2022/05/12 11:19:42;;;;;;;2.40;0.70;;;19.70;53.30;;;;;;617893;233;26563;-72
2022/05/12 11:22:11;;;;;;;2.22;0.90;;;19.40;53.90;;;;;;618205;233;26622;-72
2022/05/12 11:24:46;;;;;;;2.65;0.75;;;19.30;53.80;;;;;;617417;233;26521;-71
2022/05/12 11:27:19;;;;;;;3.37;0.90;;;19.20;55.10;;;;;;618138;233;26748;-72
2022/05/12 11:30:19;;;;;;;0.93;0.93;;;19.20;55.40;;;;;;618065;233;26777;-71
2022/05/12 11:32:52;;;;;;;1.30;0.80;;;18.80;55.20;;;;;;617802;233;26570;-72
2022/05/12 11:35:21;;;;;;;0.82;0.60;;;18.80;54.70;;;;;;617924;233;26801;-72
2022/05/12 11:37:53;;;;;;;1.60;0.88;;;18.80;54.70;;;;;;618071;233;26992;-71
2022/05/12 11:40:48;;;;;;;0.60;0.60;;;18.50;55.60;;;;;;617875;233;26539;-72
2022/05/12 11:46:25;;;;;;;0.68;0.68;;;19.50;55.80;;;;;;617426;233;26587;-71
2022/05/12 11:48:58;;;;;;;1.15;0.77;;;19.80;54.20;;;;;;617052;233;26597;-72
2022/05/12 11:51:43;;;;;;;1.08;0.90;;;19.90;53.80;;;;;;617288;231;26662;-73
2022/05/12 11:54:12;;;;;;;0.88;0.65;;;19.60;52.90;;;;;;617216;233;26638;-72
2022/05/12 11:56:42;;;;;;;1.40;0.77;;;19.60;52.90;;;;;;617084;231;26639;-72
2022/05/12 11:59:16;;;;;;;0.73;0.70;;;19.90;52.60;;;;;;617302;233;26635;-72
2022/05/12 12:01:51;;;;;;;0.57;0.57;;;20.30;52.00;;;;;;616460;233;26612;-72
2022/05/12 12:04:18;;;;;;;1.85;0.85;;;20.30;51.80;;;;;;617399;233;26634;-72
2022/05/12 12:06:48;;;;;;;0.77;0.75;;;19.60;52.10;;;;;;616189;233;27100;-72
2022/05/12 12:09:26;;;;;;;1.65;0.75;;;19.60;51.70;;;;;;617384;233;26646;-72
2022/05/12 12:11:53;;;;;;;0.82;0.80;;;19.50;51.90;;;;;;617308;233;26673;-72
2022/05/12 12:14:33;;;;;;;1.65;0.70;;;20.40;52.30;;;;;;619086;230;26607;-73
2022/05/12 12:17:10;;;;;;;0.90;0.70;;;20.40;52.30;;;;;;625492;228;26613;-73
2022/05/12 12:19:46;;;;;;;0.50;0.50;;;20.60;51.20;;;;;;625710;229;26622;-73
2022/05/12 12:22:14;;;;;;;1.75;0.95;;;20.80;50.90;;;;;;620843;227;26624;-72
2022/05/12 12:24:43;;;;;;;1.33;0.80;;;20.50;51.30;;;;;;626130;229;26563;-72
2022/05/12 12:27:16;;;;;;;2.62;0.62;;;20.40;52.00;;;;;;624511;229;26593;-73
2022/05/12 12:29:44;;;;;;;5.15;1.10;;;20.40;52.00;;;;;;618194;229;26606;-73
2022/05/12 12:32:18;;;;;;;0.85;0.82;;;20.70;51.10;;;;;;625190;229;26623;-71
2022/05/12 12:34:46;;;;;;;0.95;0.90;;;20.70;51.10;;;;;;624519;229;26590;-72
2022/05/12 12:37:13;;;;;;;1.87;1.00;;;20.60;51.00;;;;;;624108;229;26767;-72
2022/05/12 12:39:42;;;;;;;3.12;1.20;;;20.60;51.20;;;;;;624715;229;26533;-71
2022/05/12 12:42:27;;;;;;;2.10;1.90;;;20.30;51.30;;;;;;623108;229;26586;-71
2022/05/12 12:44:52;;;;;;;2.92;2.58;;;20.00;51.70;;;;;;626776;229;26535;-70
2022/05/12 12:47:24;;;;;;;6.18;3.42;;;19.90;51.20;;;;;;625846;229;26540;-70
2022/05/12 12:49:52;;;;;;;3.78;2.85;;;19.90;51.30;;;;;;622151;229;26524;-71
2022/05/12 12:52:19;;;;;;;2.50;2.40;;;20.10;50.70;;;;;;623994;229;26599;-72
2022/05/12 12:57:23;;;;;;;2.65;2.45;;;20.30;50.60;;;;;;625194;230;26531;-72
2022/05/12 12:59:58;;;;;;;2.22;2.00;;;21.50;49.50;;;;;;625769;230;26629;-71
2022/05/12 13:02:26;;;;;;;3.05;2.20;;;22.60;47.80;;;;;;620137;229;26618;-72
2022/05/12 13:04:54;;;;;;;2.33;2.12;;;22.50;47.80;;;;;;622980;230;26814;-79
2022/05/12 13:07:20;;;;;;;2.00;1.90;;;22.30;47.00;;;;;;621787;230;26566;-82
2022/05/12 13:09:48;;;;;;;3.25;2.00;;;22.00;46.50;;;;;;623449;230;26818;-79
2022/05/12 13:12:16;;;;;;;1.62;1.52;;;22.30;46.80;;;;;;624809;230;26586;-79
2022/05/12 13:14:43;;;;;;;1.80;1.62;;;22.30;46.30;;;;;;624207;230;26562;-75
2022/05/12 13:17:18;;;;;;;1.95;1.70;;;22.10;46.30;;;;;;621123;230;26613;-73